Pagrindinis puslapis
METAR-TAF:

METAR-TAF

Oro uostai :

Chabarovskas, Rusija

platuma: 48-31N, ilguma: 135-10E, Aukštis: 72 m

Dabartinis oras

Ataskaita buvo paskelbta 17 minutes, ne 22:30 UTC
Vėjas 2 kt iš Pietų/Pietvakarių
Temperatūra -26°C
Drėgmė 76%
Slėgis 1021 hPa
Matomumas: 4100 m
rūkana

METAR: UHHH 252230Z 21001MPS 4100 BR NSC M26/M29 Q1021 R23R/090060 NOSIG RMK QFE759/1012

Laikas: 08:47 (22:47 UTC)

Prognozė

Ataskaita buvo paskelbta 2 valandos ir 57 minutes, ne 19:50 UTC
Prognozė galioja nuo 25 metu 21 UTC su 27 metu 03 UTC
Vėjas 6 kt iš Šiaurės
Matomumas 10 km arba daugiau
Išsisklaidę debesys ne aukštis 2000 ft
Laikinai
nuo 25 metu 21 UTC su 26 metu 03 UTC
Matomumas: 3100 m
Išsisklaidę debesys ne aukštis 1100 ft
rūkana

TAF: UHHH 251950Z 2521/2703 01003MPS 9999 SCT020 TEMPO 2521/2603 3100 BR SCT011

Orai ataskaitas ir orų prognozės (METAR, TAF).

turimą stotys yra geltonos ir raudonos taškus žemėlapyje.

Perkelti pele per norėdami pamatyti stoties vardą.

Tada spustelėkite, norėdami matyti oro stebėjimo ir prognozės.

Norėdami pakeisti žemėlapį: spustelėkite ant žalios mygtukų su juodo kryžiaus žemyn,; žalią mygtuką su brūkšneliu, jei norite nutolinti; arba žalių rodyklių gretimoms žemėlapius.


METAR-TAF: